createdAt,value
2019-02-02T09:25:21.536Z,112.30
2019-02-02T09:30:35.705Z,106.10
2019-02-02T09:35:41.825Z,102.00
2019-02-02T09:40:47.952Z,103.43
2019-02-02T09:45:54.809Z,94.80
2019-02-02T09:51:00.762Z,97.40
2019-02-02T09:56:07.102Z,98.27
2019-02-02T10:01:13.198Z,91.10
2019-02-02T10:06:19.233Z,84.03
2019-02-02T10:11:25.400Z,89.50
2019-02-02T10:16:31.469Z,89.73
2019-02-02T10:21:37.522Z,86.00
2019-02-02T10:26:43.494Z,88.77
2019-02-02T10:31:49.691Z,82.43
2019-02-02T10:36:56.014Z,79.63
2019-02-02T10:42:02.172Z,87.47
2019-02-02T10:47:08.578Z,78.13
2019-02-02T10:52:14.640Z,77.37
2019-02-02T10:57:23.062Z,76.80
2019-02-02T11:02:29.602Z,72.33
2019-02-02T11:07:36.977Z,69.80
2019-02-02T11:12:43.244Z,60.17
2019-02-02T11:17:49.552Z,63.10
2019-02-02T11:22:55.975Z,66.03
2019-02-02T11:28:02.486Z,59.33
2019-02-02T11:33:08.875Z,56.20
2019-02-02T11:38:15.117Z,50.07
2019-02-02T11:43:21.279Z,48.53
2019-02-02T11:48:27.772Z,57.13
2019-02-02T11:53:33.873Z,56.23
2019-02-02T11:58:40.087Z,50.93
2019-02-02T12:03:46.238Z,48.27
2019-02-02T12:08:52.690Z,45.23
2019-02-02T12:13:58.605Z,41.67
2019-02-02T12:19:04.827Z,41.23
2019-02-02T12:24:14.318Z,42.77
2019-02-02T12:29:19.445Z,40.67
2019-02-02T12:34:25.577Z,38.93
2019-02-02T12:39:31.685Z,40.47
2019-02-02T12:44:37.786Z,40.33
2019-02-02T12:49:43.694Z,38.77
2019-02-02T12:54:49.709Z,37.63
2019-02-02T12:59:55.906Z,36.87
2019-02-02T13:05:03.729Z,35.57
2019-02-02T13:10:12.925Z,34.30
2019-02-02T13:15:19.040Z,38.87
2019-02-02T13:20:25.125Z,37.70
2019-02-02T13:25:31.176Z,39.47
2019-02-02T13:30:37.853Z,40.03
2019-02-02T13:35:46.017Z,41.63
2019-02-02T13:40:52.702Z,40.23
2019-02-02T13:45:58.803Z,39.50
2019-02-02T13:51:06.062Z,39.30
2019-02-02T13:56:12.462Z,41.43
2019-02-02T14:01:18.601Z,36.13
2019-02-02T14:06:24.610Z,44.20
2019-02-02T14:11:30.653Z,45.73
2019-02-02T14:16:36.621Z,51.07
2019-02-02T14:21:42.761Z,47.13
2019-02-02T14:26:48.674Z,47.73
2019-02-02T14:31:54.711Z,48.00
2019-02-02T14:37:00.805Z,51.73
2019-02-02T14:42:06.834Z,45.87
2019-02-02T14:47:13.037Z,47.20
2019-02-02T14:52:19.055Z,50.50
2019-02-02T14:57:25.036Z,46.73
2019-02-02T15:02:31.054Z,46.50
2019-02-02T15:07:37.215Z,45.80
2019-02-02T15:12:43.329Z,49.23
2019-02-02T15:17:52.221Z,38.67
2019-02-02T15:22:58.800Z,38.33
2019-02-02T15:28:05.104Z,38.70
2019-02-02T15:33:11.120Z,36.17
2019-02-02T15:38:19.127Z,41.10
2019-02-02T15:43:25.767Z,41.33
2019-02-02T15:48:31.820Z,37.20
2019-02-02T15:53:37.985Z,40.83
2019-02-02T15:58:43.896Z,41.03
2019-02-02T16:03:50.122Z,40.43
2019-02-02T16:08:56.409Z,42.00
2019-02-02T16:14:02.943Z,40.10
2019-02-02T16:19:10.164Z,42.80
2019-02-02T16:24:16.197Z,42.20
2019-02-02T16:29:22.250Z,45.60
2019-02-02T16:34:28.471Z,43.70
2019-02-02T16:39:34.580Z,42.70
2019-02-02T16:44:41.749Z,42.57
2019-02-02T16:49:47.852Z,42.70
2019-02-02T16:54:53.978Z,44.20
2019-02-02T17:00:00.760Z,37.93
2019-02-02T17:05:08.746Z,43.13
2019-02-02T17:10:17.906Z,38.67
2019-02-02T17:15:24.011Z,44.47
2019-02-02T17:20:35.612Z,42.90
2019-02-02T17:25:41.787Z,43.23
2019-02-02T17:30:47.911Z,44.80
2019-02-02T17:35:53.873Z,43.83
2019-02-02T17:40:59.882Z,45.43
2019-02-02T17:46:08.176Z,45.90
2019-02-02T17:51:14.575Z,41.90
2019-02-02T17:56:20.565Z,45.50
2019-02-02T18:01:27.412Z,42.83
2019-02-02T18:06:33.643Z,41.03
2019-02-02T18:11:39.738Z,42.50
2019-02-02T18:16:45.728Z,40.97
2019-02-02T18:21:51.744Z,39.57
2019-02-02T18:26:57.808Z,37.67
2019-02-02T18:32:12.705Z,38.40
2019-02-02T18:37:11.763Z,36.70
2019-02-02T18:42:17.828Z,36.70
2019-02-02T18:47:23.890Z,35.83
2019-02-02T18:52:30.051Z,37.63
2019-02-02T18:57:37.201Z,39.23
2019-02-02T19:02:44.232Z,35.97
2019-02-02T19:07:50.291Z,38.87
2019-02-02T19:12:56.340Z,40.47
2019-02-02T19:18:03.463Z,43.57
2019-02-02T19:23:10.785Z,40.67
2019-02-02T19:28:16.963Z,37.90
2019-02-02T19:33:23.013Z,39.43
2019-02-02T19:38:29.184Z,38.83
2019-02-02T19:43:35.277Z,41.90
2019-02-02T19:48:41.441Z,39.33
2019-02-02T19:53:47.845Z,40.53
2019-02-02T19:58:54.949Z,37.67
2019-02-02T20:04:01.325Z,40.20
2019-02-02T20:09:09.144Z,38.60
2019-02-02T20:14:15.328Z,34.37
2019-02-02T20:19:21.530Z,35.10
2019-02-02T20:24:27.672Z,35.60
2019-02-02T20:29:33.758Z,31.20
2019-02-02T20:34:39.805Z,34.30
2019-02-02T20:39:45.781Z,34.27
2019-02-02T20:44:51.757Z,36.50
2019-02-02T20:49:58.076Z,43.60
2019-02-02T20:55:04.745Z,42.20
2019-02-02T21:00:14.845Z,45.00
2019-02-02T21:05:21.139Z,43.17
2019-02-02T21:10:27.246Z,46.03
2019-02-02T21:15:33.352Z,42.00
2019-02-02T21:20:39.462Z,38.57
2019-02-02T21:25:45.501Z,40.10
2019-02-02T21:30:51.958Z,41.20
2019-02-02T21:36:04.124Z,41.47
2019-02-02T21:41:07.940Z,46.80
2019-02-02T21:46:14.327Z,41.00
2019-02-02T21:51:20.392Z,45.90
2019-02-02T21:56:26.446Z,43.60
2019-02-02T22:01:32.513Z,42.63
2019-02-02T22:06:38.551Z,40.70
2019-02-02T22:11:45.065Z,44.33
2019-02-02T22:16:51.133Z,40.23
2019-02-02T22:21:57.086Z,37.63
2019-02-02T22:27:03.131Z,42.03
2019-02-02T22:32:09.197Z,40.13
2019-02-02T22:37:15.144Z,39.47
2019-02-02T22:42:21.687Z,44.70
2019-02-02T22:47:28.005Z,46.67
2019-02-02T22:52:34.163Z,43.73
2019-02-02T22:57:41.579Z,48.97
2019-02-02T23:02:47.643Z,48.57
2019-02-02T23:08:15.025Z,50.63
2019-02-02T23:14:05.834Z,55.47
2019-02-02T23:19:12.147Z,50.07
2019-02-02T23:24:18.199Z,52.77
2019-02-02T23:29:24.446Z,52.30
2019-02-02T23:34:30.592Z,51.87
2019-02-02T23:39:37.173Z,50.97
2019-02-02T23:44:44.048Z,47.27
2019-02-02T23:49:50.149Z,44.77
2019-02-02T23:54:56.279Z,43.43
